createdAt,value
2018-08-18T00:00:22.742Z,44.07
2018-08-18T00:02:51.901Z,43.97
2018-08-18T00:05:21.078Z,52.57
2018-08-18T00:07:50.237Z,45.63
2018-08-18T00:10:22.435Z,44.00
2018-08-18T00:12:52.541Z,48.27
2018-08-18T00:15:21.741Z,55.47
2018-08-18T00:17:51.014Z,53.47
2018-08-18T00:20:23.841Z,44.07
2018-08-18T00:22:53.829Z,52.90
2018-08-18T00:25:23.030Z,58.70
2018-08-18T00:27:52.194Z,56.03
2018-08-18T00:30:28.303Z,53.60
2018-08-18T00:32:57.426Z,52.50
2018-08-18T00:35:26.581Z,52.33
2018-08-18T00:37:56.415Z,47.10
2018-08-18T00:40:25.594Z,52.20
2018-08-18T00:42:54.710Z,50.03
2018-08-18T00:45:23.966Z,49.73
2018-08-18T00:47:53.105Z,44.53
2018-08-18T00:50:37.471Z,50.23
2018-08-18T00:53:08.461Z,42.87
2018-08-18T00:55:38.716Z,64.27
2018-08-18T00:58:20.638Z,49.03
2018-08-18T01:01:07.131Z,51.60
2018-08-18T01:03:43.129Z,69.27
2018-08-18T01:06:19.767Z,51.13
2018-08-18T01:08:52.132Z,46.73
2018-08-18T01:11:21.493Z,50.00
2018-08-18T01:13:51.080Z,52.97
2018-08-18T01:16:20.478Z,61.40
2018-08-18T01:18:50.244Z,52.60
2018-08-18T01:21:19.434Z,56.63
2018-08-18T01:23:48.551Z,51.00
2018-08-18T01:26:17.757Z,55.57
2018-08-18T01:28:47.554Z,57.30
2018-08-18T01:31:20.589Z,58.67
2018-08-18T01:33:49.757Z,64.30
2018-08-18T01:36:18.937Z,68.63
2018-08-18T01:38:48.090Z,72.63
2018-08-18T01:41:22.249Z,60.43
2018-08-18T01:44:12.433Z,62.67
2018-08-18T01:46:42.155Z,66.13
2018-08-18T01:49:35.861Z,67.10
2018-08-18T01:52:12.745Z,67.83
2018-08-18T01:54:43.257Z,66.10
2018-08-18T01:57:13.955Z,65.43
2018-08-18T01:59:44.537Z,75.00
2018-08-18T02:02:19.824Z,67.60
2018-08-18T02:04:49.498Z,64.43
2018-08-18T02:07:25.772Z,64.83
2018-08-18T02:09:55.466Z,73.93
2018-08-18T02:12:25.127Z,61.97
2018-08-18T02:14:54.642Z,85.30
2018-08-18T02:17:29.840Z,70.10
2018-08-18T02:19:59.605Z,64.23
2018-08-18T02:22:29.525Z,65.33
2018-08-18T02:24:58.825Z,64.50
2018-08-18T02:27:28.013Z,59.10
2018-08-18T02:30:15.165Z,61.80
2018-08-18T02:32:44.309Z,63.87
2018-08-18T02:35:13.468Z,68.20
2018-08-18T02:37:42.617Z,68.70
2018-08-18T02:40:15.639Z,59.70
2018-08-18T02:42:44.702Z,65.70
2018-08-18T02:45:14.728Z,72.13
2018-08-18T02:47:43.847Z,62.47
2018-08-18T02:50:14.802Z,59.20
2018-08-18T02:52:44.053Z,61.53
2018-08-18T02:55:13.341Z,61.57
2018-08-18T02:57:43.669Z,55.53
2018-08-18T03:00:23.482Z,69.33
2018-08-18T03:02:52.586Z,58.07
2018-08-18T03:05:21.700Z,61.83
2018-08-18T03:07:51.992Z,58.30
2018-08-18T03:10:24.518Z,60.50
2018-08-18T03:12:59.954Z,72.10
2018-08-18T03:16:03.306Z,62.40
2018-08-18T03:18:50.030Z,65.70
2018-08-18T03:21:25.230Z,73.87
2018-08-18T03:24:14.262Z,60.90
2018-08-18T03:26:48.225Z,60.60
2018-08-18T03:29:17.947Z,60.43
2018-08-18T03:31:47.645Z,71.20
2018-08-18T03:34:17.199Z,72.93
2018-08-18T03:36:48.787Z,74.80
2018-08-18T03:39:35.631Z,82.67
2018-08-18T03:42:05.285Z,75.77
2018-08-18T03:44:40.519Z,81.87
2018-08-18T03:47:09.614Z,82.03
2018-08-18T03:49:38.714Z,83.63
2018-08-18T03:52:07.830Z,89.07
2018-08-18T03:54:36.954Z,82.87
2018-08-18T03:57:06.218Z,87.73
2018-08-18T03:59:35.350Z,114.33
2018-08-18T04:02:04.488Z,108.10
2018-08-18T04:04:35.778Z,88.90
2018-08-18T04:07:06.403Z,85.50
2018-08-18T04:09:36.661Z,84.13
2018-08-18T04:12:07.145Z,85.60
2018-08-18T04:14:40.349Z,85.50
2018-08-18T04:17:26.354Z,73.70
2018-08-18T04:19:55.493Z,81.27
2018-08-18T04:22:24.697Z,92.63
2018-08-18T04:24:55.849Z,92.57
2018-08-18T04:27:39.697Z,102.80
2018-08-18T04:30:12.483Z,92.47
2018-08-18T04:32:57.924Z,98.67
2018-08-18T04:35:28.210Z,105.23
2018-08-18T04:37:58.725Z,119.57
2018-08-18T04:40:27.985Z,118.30
2018-08-18T04:42:58.554Z,121.60
2018-08-18T04:45:28.192Z,116.70
2018-08-18T04:47:58.145Z,112.70
2018-08-18T04:50:27.304Z,110.10
2018-08-18T04:52:56.366Z,115.00
2018-08-18T04:55:25.477Z,116.73
2018-08-18T04:57:54.574Z,106.37
2018-08-18T05:00:25.323Z,98.47
2018-08-18T05:02:58.687Z,83.03
2018-08-18T05:05:30.579Z,84.40
2018-08-18T05:08:01.395Z,82.77
2018-08-18T05:10:30.694Z,74.50
2018-08-18T05:12:59.797Z,78.30
2018-08-18T05:15:28.941Z,77.17
2018-08-18T05:17:58.075Z,92.97
2018-08-18T05:20:27.919Z,77.10
2018-08-18T05:23:13.146Z,89.17
2018-08-18T05:25:42.399Z,76.07
2018-08-18T05:28:11.811Z,74.37
2018-08-18T05:30:42.135Z,67.93
2018-08-18T05:33:11.455Z,69.73
2018-08-18T05:35:40.629Z,71.23
2018-08-18T05:38:09.738Z,85.87
2018-08-18T05:40:38.878Z,64.13
2018-08-18T05:43:08.016Z,63.43
2018-08-18T05:45:37.125Z,68.33
2018-08-18T05:48:06.341Z,58.43
2018-08-18T05:50:35.458Z,67.10
2018-08-18T05:53:18.138Z,64.70
2018-08-18T05:55:48.032Z,60.83
2018-08-18T05:58:17.185Z,59.00
2018-08-18T06:00:46.655Z,47.87
2018-08-18T06:03:18.573Z,45.43
2018-08-18T06:05:47.777Z,57.77
2018-08-18T06:08:16.933Z,40.50
2018-08-18T06:10:46.050Z,44.80
2018-08-18T06:13:20.588Z,41.53
2018-08-18T06:16:20.387Z,51.13
2018-08-18T06:18:49.503Z,53.63
2018-08-18T06:21:18.614Z,51.03
2018-08-18T06:23:47.722Z,49.63
2018-08-18T06:26:16.811Z,46.20
2018-08-18T06:28:46.580Z,50.13
2018-08-18T06:31:16.573Z,50.27
2018-08-18T06:33:46.418Z,48.97
2018-08-18T06:36:15.710Z,46.77
2018-08-18T06:38:45.314Z,45.17
2018-08-18T06:41:14.640Z,40.27
2018-08-18T06:43:43.794Z,40.60
2018-08-18T06:46:13.642Z,46.63
2018-08-18T06:48:42.770Z,44.80
2018-08-18T06:51:11.931Z,39.53
2018-08-18T06:53:42.997Z,44.57
2018-08-18T06:56:12.598Z,43.90
2018-08-18T06:58:41.729Z,48.33
2018-08-18T07:01:11.410Z,47.50
2018-08-18T07:03:47.312Z,51.33
2018-08-18T07:06:17.522Z,41.20
2018-08-18T07:08:51.769Z,46.67
2018-08-18T07:11:20.909Z,42.97
2018-08-18T07:13:50.429Z,42.40
2018-08-18T07:16:19.574Z,43.57
2018-08-18T07:18:48.709Z,45.93
2018-08-18T07:21:17.815Z,39.47
2018-08-18T07:23:46.931Z,43.13
2018-08-18T07:26:16.026Z,42.13
2018-08-18T07:28:45.208Z,36.00
2018-08-18T07:31:14.255Z,36.83
2018-08-18T07:33:43.468Z,38.00
2018-08-18T07:36:12.718Z,42.60
2018-08-18T07:38:41.945Z,36.50
2018-08-18T07:41:11.948Z,36.47
2018-08-18T07:43:41.040Z,35.90
2018-08-18T07:46:10.232Z,40.60
2018-08-18T07:48:39.326Z,35.50
2018-08-18T07:51:08.611Z,32.83
2018-08-18T07:53:37.856Z,36.50
2018-08-18T07:56:06.928Z,39.87
2018-08-18T07:58:38.415Z,33.63
2018-08-18T08:01:09.082Z,36.73
2018-08-18T08:03:38.218Z,36.40
2018-08-18T08:06:07.371Z,36.10
2018-08-18T08:08:41.693Z,33.63
2018-08-18T08:11:14.982Z,37.57
2018-08-18T08:13:44.370Z,33.00
2018-08-18T08:16:13.563Z,34.17
2018-08-18T08:18:43.480Z,31.53
2018-08-18T08:21:12.674Z,28.93
2018-08-18T08:23:41.867Z,32.03
2018-08-18T08:26:11.646Z,29.50
2018-08-18T08:28:40.829Z,32.17
2018-08-18T08:31:09.986Z,32.87
2018-08-18T08:33:39.723Z,30.43
2018-08-18T08:36:14.746Z,30.57
2018-08-18T08:38:53.669Z,34.40
2018-08-18T08:41:27.310Z,35.67
2018-08-18T08:43:56.516Z,34.70
2018-08-18T08:46:25.633Z,29.90
2018-08-18T08:48:57.975Z,37.50
2018-08-18T08:51:27.212Z,31.30
2018-08-18T08:53:58.466Z,37.33
2018-08-18T08:56:32.790Z,36.77
2018-08-18T08:59:01.993Z,33.23
2018-08-18T09:01:31.242Z,34.63
2018-08-18T09:04:00.343Z,30.53
2018-08-18T09:06:29.473Z,33.77
2018-08-18T09:08:59.522Z,34.33
2018-08-18T09:11:29.804Z,31.03
2018-08-18T09:14:04.726Z,28.83
2018-08-18T09:16:34.792Z,30.43
2018-08-18T09:19:03.938Z,30.77
2018-08-18T09:21:40.202Z,32.47
2018-08-18T09:24:09.329Z,28.87
2018-08-18T09:26:43.638Z,31.17
2018-08-18T09:29:14.064Z,29.67
2018-08-18T09:31:44.653Z,32.70
2018-08-18T09:34:14.294Z,29.80
2018-08-18T09:36:44.882Z,28.70
2018-08-18T09:39:21.438Z,31.87
2018-08-18T09:41:51.969Z,32.77
2018-08-18T09:44:26.237Z,28.80
2018-08-18T09:46:56.238Z,35.70
2018-08-18T09:49:25.694Z,30.50
2018-08-18T09:51:54.834Z,33.23
2018-08-18T09:54:24.534Z,31.33
2018-08-18T09:56:53.826Z,30.73
2018-08-18T09:59:23.111Z,30.43
2018-08-18T10:01:52.809Z,29.73
2018-08-18T10:04:22.592Z,29.43
2018-08-18T10:06:52.262Z,31.03
2018-08-18T10:09:21.574Z,30.33
2018-08-18T10:11:50.686Z,28.73
2018-08-18T10:14:19.789Z,26.33
2018-08-18T10:16:49.114Z,30.83
2018-08-18T10:19:18.301Z,33.20
2018-08-18T10:21:47.825Z,39.40
2018-08-18T10:24:16.922Z,29.27
2018-08-18T10:26:52.957Z,29.03
2018-08-18T10:29:23.290Z,30.03
2018-08-18T10:31:54.412Z,29.03
2018-08-18T10:34:27.642Z,27.00
2018-08-18T10:37:05.256Z,26.20
2018-08-18T10:39:36.474Z,27.10
2018-08-18T10:42:26.490Z,27.07
2018-08-18T10:45:01.289Z,25.20
2018-08-18T10:47:31.622Z,25.23
2018-08-18T10:51:20.185Z,23.63
2018-08-18T10:53:49.503Z,24.90
2018-08-18T10:56:18.624Z,22.10
2018-08-18T10:59:09.931Z,25.60
2018-08-18T11:01:59.860Z,24.27
2018-08-18T11:04:31.534Z,26.53
2018-08-18T11:07:00.650Z,25.03
2018-08-18T11:09:30.702Z,21.40
2018-08-18T11:12:00.090Z,26.87
2018-08-18T11:14:29.174Z,23.50
2018-08-18T11:16:58.265Z,20.20
2018-08-18T11:19:27.383Z,34.80
2018-08-18T11:22:18.074Z,21.77
2018-08-18T11:24:47.302Z,18.03
2018-08-18T11:27:16.462Z,18.33
2018-08-18T11:29:45.605Z,18.40
2018-08-18T11:32:15.487Z,17.70
2018-08-18T11:34:45.153Z,15.00
2018-08-18T11:37:14.407Z,15.67
2018-08-18T11:39:44.065Z,22.33
2018-08-18T11:42:13.402Z,18.90
2018-08-18T11:44:42.698Z,19.57
2018-08-18T11:47:11.843Z,20.10
2018-08-18T11:49:40.981Z,15.83
2018-08-18T11:52:10.098Z,18.13
2018-08-18T11:54:39.283Z,19.13
2018-08-18T11:57:08.893Z,19.70
2018-08-18T11:59:37.985Z,18.50
2018-08-18T12:02:07.161Z,17.40
2018-08-18T12:04:36.245Z,17.20
2018-08-18T12:07:05.472Z,17.87
2018-08-18T12:09:34.571Z,15.27
2018-08-18T12:12:03.738Z,17.00
2018-08-18T12:14:32.847Z,20.13
2018-08-18T12:17:01.937Z,17.60
2018-08-18T12:19:31.071Z,16.93
2018-08-18T12:22:00.190Z,15.97
2018-08-18T12:24:29.470Z,17.20
2018-08-18T12:27:11.602Z,18.63
2018-08-18T12:29:40.766Z,15.17
2018-08-18T12:32:18.111Z,18.20
2018-08-18T12:34:47.459Z,14.50
2018-08-18T12:37:16.570Z,17.50
2018-08-18T12:39:45.663Z,16.03
2018-08-18T12:42:19.066Z,15.40
2018-08-18T12:44:48.214Z,14.47
2018-08-18T12:47:17.329Z,15.00
2018-08-18T12:49:46.474Z,15.10
2018-08-18T12:52:15.597Z,14.87
2018-08-18T12:54:44.804Z,17.97
2018-08-18T12:57:14.550Z,16.23
2018-08-18T12:59:43.654Z,16.40
2018-08-18T13:02:12.786Z,15.23
2018-08-18T13:04:41.947Z,15.23
2018-08-18T13:07:11.114Z,15.30
2018-08-18T13:09:40.232Z,12.70
2018-08-18T13:12:09.390Z,13.80
2018-08-18T13:14:38.619Z,13.70
2018-08-18T13:17:07.879Z,13.33
2018-08-18T13:19:37.064Z,16.10
2018-08-18T13:22:06.179Z,14.27
2018-08-18T13:24:35.327Z,12.43
2018-08-18T13:27:04.437Z,13.07
2018-08-18T13:29:33.902Z,13.60
2018-08-18T13:32:03.082Z,12.67
2018-08-18T13:34:32.186Z,12.20
2018-08-18T13:37:01.311Z,14.30
2018-08-18T13:42:20.729Z,12.40
2018-08-18T13:44:50.378Z,14.40
2018-08-18T13:47:19.557Z,12.10
2018-08-18T13:50:02.289Z,18.10
2018-08-18T13:52:35.495Z,11.03
2018-08-18T13:55:04.597Z,11.23
2018-08-18T13:57:34.142Z,11.60
2018-08-18T14:00:03.487Z,15.50
2018-08-18T14:02:32.577Z,9.97
2018-08-18T14:05:01.683Z,12.57
2018-08-18T14:07:31.627Z,11.70
2018-08-18T14:10:01.502Z,14.47
2018-08-18T14:12:30.595Z,10.83
2018-08-18T14:14:59.713Z,10.40
2018-08-18T14:17:28.824Z,10.90
2018-08-18T14:19:57.962Z,11.20
2018-08-18T14:22:27.091Z,13.07
2018-08-18T14:24:56.252Z,10.83
2018-08-18T14:27:25.373Z,10.63
2018-08-18T14:29:54.483Z,25.53
2018-08-18T14:32:27.622Z,9.40
2018-08-18T14:35:01.262Z,10.23
2018-08-18T14:37:30.390Z,10.63
2018-08-18T14:39:59.542Z,9.40
2018-08-18T14:42:28.894Z,9.23
2018-08-18T14:44:59.313Z,9.77
2018-08-18T14:47:28.532Z,12.20
2018-08-18T14:50:15.354Z,12.03
2018-08-18T14:52:45.644Z,10.67
2018-08-18T14:55:15.376Z,12.03
2018-08-18T14:57:49.732Z,12.27
2018-08-18T15:00:19.497Z,9.67
2018-08-18T15:02:48.670Z,10.77
2018-08-18T15:05:17.890Z,10.70
2018-08-18T15:07:49.974Z,9.30
2018-08-18T15:10:40.469Z,11.03
2018-08-18T15:13:10.365Z,11.23
2018-08-18T15:15:39.677Z,10.63
2018-08-18T15:18:12.275Z,10.20
2018-08-18T15:20:44.105Z,10.00
2018-08-18T15:23:13.994Z,9.40
2018-08-18T15:25:44.992Z,9.93
2018-08-18T15:28:16.176Z,10.30
2018-08-18T15:30:53.230Z,11.33
2018-08-18T15:33:23.808Z,11.47
2018-08-18T15:35:53.022Z,9.50
2018-08-18T15:38:47.549Z,8.90
2018-08-18T15:41:16.968Z,8.27
2018-08-18T15:43:46.722Z,8.03
2018-08-18T15:46:16.161Z,8.63
2018-08-18T15:48:45.582Z,10.37
2018-08-18T15:51:15.018Z,8.27
2018-08-18T15:53:46.582Z,9.30
2018-08-18T15:56:16.210Z,10.67
2018-08-18T15:58:47.138Z,9.93
2018-08-18T16:01:17.673Z,9.07
2018-08-18T16:03:47.011Z,10.70
2018-08-18T16:06:16.229Z,8.83
2018-08-18T16:08:45.473Z,11.07
2018-08-18T16:11:15.530Z,9.53
2018-08-18T16:13:45.438Z,8.30
2018-08-18T16:16:15.334Z,8.70
2018-08-18T16:18:46.065Z,9.67
2018-08-18T16:21:23.098Z,9.30
2018-08-18T16:23:52.516Z,9.70
2018-08-18T16:26:22.410Z,8.63
2018-08-18T16:28:53.742Z,10.37
2018-08-18T16:31:22.866Z,10.97
2018-08-18T16:33:54.250Z,8.90
2018-08-18T16:36:28.578Z,9.60
2018-08-18T16:38:57.683Z,10.63
2018-08-18T16:41:26.786Z,9.60
2018-08-18T16:43:56.113Z,10.00
2018-08-18T16:46:29.534Z,10.80
2018-08-18T16:48:59.473Z,9.50
2018-08-18T16:51:28.766Z,10.70
2018-08-18T16:54:18.555Z,11.40
2018-08-18T16:56:47.787Z,8.70
2018-08-18T16:59:17.050Z,10.40
2018-08-18T17:01:46.292Z,12.50
2018-08-18T17:04:22.613Z,9.83
2018-08-18T17:06:52.070Z,9.77
2018-08-18T17:09:40.481Z,11.47
2018-08-18T17:12:21.427Z,9.30
2018-08-18T17:14:50.583Z,11.07
2018-08-18T17:17:22.147Z,9.60
2018-08-18T17:19:51.293Z,10.10
2018-08-18T17:22:20.458Z,9.20
2018-08-18T17:24:49.607Z,10.80
2018-08-18T17:27:18.707Z,9.43
2018-08-18T17:29:50.088Z,14.73
2018-08-18T17:32:19.350Z,9.90
2018-08-18T17:34:49.042Z,14.90
2018-08-18T17:37:18.383Z,10.80
2018-08-18T17:39:48.129Z,13.63
2018-08-18T17:42:17.260Z,10.80
2018-08-18T17:44:46.504Z,10.80
2018-08-18T17:47:15.616Z,9.77
2018-08-18T17:49:50.781Z,10.60
2018-08-18T17:52:19.939Z,11.43
2018-08-18T17:55:08.497Z,15.30
2018-08-18T17:57:38.194Z,12.87
2018-08-18T18:00:19.640Z,10.90
2018-08-18T18:02:54.558Z,12.40
2018-08-18T18:05:28.873Z,17.67
2018-08-18T18:08:02.414Z,13.40
2018-08-18T18:10:33.891Z,10.27
2018-08-18T18:13:11.606Z,17.53
2018-08-18T18:15:41.192Z,10.63
2018-08-18T18:18:12.874Z,14.23
2018-08-18T18:20:43.503Z,14.07
2018-08-18T18:23:13.940Z,11.33
2018-08-18T18:25:43.157Z,27.17
2018-08-18T18:28:12.384Z,25.40
2018-08-18T18:30:41.698Z,13.13
2018-08-18T18:33:12.020Z,13.93
2018-08-18T18:35:41.845Z,12.90
2018-08-18T18:38:11.052Z,11.67
2018-08-18T18:40:43.144Z,12.03
2018-08-18T18:43:12.269Z,14.73
2018-08-18T18:45:41.688Z,13.30
2018-08-18T18:48:13.961Z,15.53
2018-08-18T18:50:46.505Z,14.30
2018-08-18T18:53:15.766Z,13.20
2018-08-18T18:55:51.910Z,12.40
2018-08-18T18:58:21.604Z,12.43
2018-08-18T19:01:02.883Z,11.70
2018-08-18T19:03:33.482Z,14.80
2018-08-18T19:06:03.133Z,14.80
2018-08-18T19:08:33.734Z,14.53
2018-08-18T19:11:03.916Z,16.67
2018-08-18T19:13:34.286Z,19.67
2018-08-18T19:16:04.393Z,19.50
2018-08-18T19:18:34.298Z,19.33
2018-08-18T19:21:04.222Z,14.20
2018-08-18T19:23:34.152Z,12.50
2018-08-18T19:26:03.775Z,13.80
2018-08-18T19:28:33.155Z,16.67
2018-08-18T19:31:03.034Z,13.13
2018-08-18T19:33:32.436Z,15.93
2018-08-18T19:36:02.110Z,15.30
2018-08-18T19:38:31.446Z,16.07
2018-08-18T19:41:00.997Z,18.63
2018-08-18T19:43:30.147Z,16.43
2018-08-18T19:45:59.474Z,16.37
2018-08-18T19:48:28.927Z,34.33
2018-08-18T19:51:03.611Z,29.73
2018-08-18T19:53:34.490Z,25.30
2018-08-18T19:56:04.137Z,19.17
2018-08-18T19:58:33.754Z,17.27
2018-08-18T20:01:03.418Z,15.30
2018-08-18T20:03:32.895Z,16.53
2018-08-18T20:06:02.667Z,19.13
2018-08-18T20:08:32.457Z,18.80
2018-08-18T20:11:02.363Z,16.40
2018-08-18T20:13:32.446Z,18.40
2018-08-18T20:16:03.122Z,18.73
2018-08-18T20:18:34.252Z,17.47
2018-08-18T20:21:03.381Z,15.87
2018-08-18T20:23:32.998Z,17.37
2018-08-18T20:26:03.558Z,15.50
2018-08-18T20:28:32.625Z,19.00
2018-08-18T20:31:01.747Z,16.20
2018-08-18T20:33:31.821Z,18.67
2018-08-18T20:36:00.930Z,17.50
2018-08-18T20:38:36.958Z,16.93
2018-08-18T20:41:06.073Z,20.20
2018-08-18T20:43:35.189Z,16.33
2018-08-18T20:46:04.690Z,18.10
2018-08-18T20:48:33.909Z,20.93
2018-08-18T20:51:03.992Z,18.13
2018-08-18T20:53:33.627Z,15.60
2018-08-18T20:56:03.498Z,17.77
2018-08-18T20:58:34.124Z,19.73
2018-08-18T21:01:03.634Z,19.13
2018-08-18T21:03:47.064Z,16.80
2018-08-18T21:06:17.158Z,16.90
2018-08-18T21:08:46.291Z,17.20
2018-08-18T21:11:15.730Z,19.03
2018-08-18T21:13:47.504Z,18.77
2018-08-18T21:16:16.998Z,19.93
2018-08-18T21:18:46.145Z,17.67
2018-08-18T21:21:31.101Z,17.90
2018-08-18T21:24:00.257Z,20.13
2018-08-18T21:26:29.870Z,23.30
2018-08-18T21:28:59.339Z,19.33
2018-08-18T21:31:35.817Z,17.13
2018-08-18T21:34:06.332Z,17.27
2018-08-18T21:36:35.693Z,35.87
2018-08-18T21:39:08.313Z,27.97
2018-08-18T21:41:39.942Z,29.30
2018-08-18T21:44:10.953Z,26.30
2018-08-18T21:46:40.796Z,23.23
2018-08-18T21:49:11.341Z,24.33
2018-08-18T21:51:41.270Z,20.43
2018-08-18T21:54:10.525Z,25.33
2018-08-18T21:56:41.704Z,18.73
2018-08-18T21:59:12.249Z,24.10
2018-08-18T22:01:41.713Z,22.27
2018-08-18T22:04:10.846Z,20.80
2018-08-18T22:06:40.197Z,20.03
2018-08-18T22:09:25.404Z,18.20
2018-08-18T22:11:54.526Z,20.30
2018-08-18T22:14:23.629Z,19.37
2018-08-18T22:16:56.548Z,25.50
2018-08-18T22:19:27.639Z,27.10
2018-08-18T22:21:56.785Z,22.37
2018-08-18T22:24:25.895Z,17.30
2018-08-18T22:26:55.002Z,23.10
2018-08-18T22:29:25.413Z,20.20
2018-08-18T22:31:54.602Z,18.90
2018-08-18T22:34:23.721Z,18.30
2018-08-18T22:37:01.158Z,19.73
2018-08-18T22:39:30.318Z,21.83
2018-08-18T22:42:00.184Z,19.67
2018-08-18T22:44:29.318Z,21.90
2018-08-18T22:46:58.402Z,19.30
2018-08-18T22:49:27.498Z,20.53
2018-08-18T22:51:56.280Z,19.23
2018-08-18T22:54:25.863Z,18.27
2018-08-18T22:57:01.042Z,19.93
2018-08-18T22:59:31.297Z,25.07
2018-08-18T23:02:00.568Z,20.30
2018-08-18T23:04:33.963Z,19.90
2018-08-18T23:07:05.740Z,21.40
2018-08-18T23:09:34.847Z,21.10
2018-08-18T23:12:06.459Z,20.47
2018-08-18T23:14:36.658Z,20.50
2018-08-18T23:17:06.798Z,23.60
2018-08-18T23:19:36.709Z,23.83
2018-08-18T23:22:05.981Z,19.27
2018-08-18T23:24:38.022Z,19.90
2018-08-18T23:27:07.172Z,20.10
2018-08-18T23:29:36.413Z,22.27
2018-08-18T23:32:14.996Z,20.60
2018-08-18T23:34:44.590Z,21.33
2018-08-18T23:37:19.591Z,21.40
2018-08-18T23:39:56.056Z,20.83
2018-08-18T23:42:25.894Z,25.63
2018-08-18T23:44:55.010Z,24.30
2018-08-18T23:47:24.119Z,22.00
2018-08-18T23:49:53.808Z,18.40
2018-08-18T23:52:23.166Z,21.07
2018-08-18T23:54:53.638Z,22.60
2018-08-18T23:57:22.955Z,24.80
2018-08-18T23:59:52.204Z,19.83
